El Eden Airport


Codes: SKAR/AXM
Name: El Eden Airport
City: Armenia
Country: Colombia
Elevation: 3990 ft.
Wikipedia:

Photos at El Eden Airport


   Photos courtesy of SpottingLog. You can add your own sightings and photos by signing up for a free trial today.



No photos found.

Weather at El Eden Airport


Time (UTC)DescriptionTempratureWindCloud coverageVisibilityPressureHumidity
21-Feb-2024 03:00Light Rain25°C2 mph, SE40%10000m1018hPa65%
21-Feb-2024 06:00Light Rain23°C0 mph, SE60%5401m1017hPa76%
21-Feb-2024 09:00Light Rain21°C2 mph, SE77%9178m1017hPa87%
21-Feb-2024 12:00Light Rain19°C2 mph, SE97%10000m1017hPa94%
21-Feb-2024 15:00Light Rain23°C4 mph, NW98%10000m1017hPa84%
21-Feb-2024 18:00Light Rain25°C4 mph, W92%10000m1014hPa75%
21-Feb-2024 21:00Moderate Rain23°C2 mph, W93%3244m1013hPa84%
22-Feb-2024 00:00Moderate Rain19°C2 mph, S94%4397m1015hPa95%
22-Feb-2024 03:00Light Rain18°C2 mph, SE65%6845m1018hPa96%
22-Feb-2024 06:00Light Rain18°C2 mph, SE71%8464m1017hPa97%
22-Feb-2024 09:00Light Rain18°C2 mph, SE96%10000m1016hPa96%
22-Feb-2024 12:00Light Rain19°C0 mph, E96%10000m1017hPa95%
22-Feb-2024 15:00Light Rain23°C2 mph, NW43%10000m1017hPa77%
22-Feb-2024 18:00Light Rain27°C4 mph, W34%10000m1012hPa59%
22-Feb-2024 21:00Light Rain25°C4 mph, W31%10000m1010hPa70%
23-Feb-2024 00:00Light Rain20°C2 mph, SE33%10000m1013hPa93%
23-Feb-2024 03:00Light Rain19°C2 mph, SE96%10000m1015hPa93%
23-Feb-2024 06:00Overcast Clouds18°C2 mph, SE91%10000m1014hPa93%
23-Feb-2024 09:00Light Rain18°C2 mph, SE75%10000m1013hPa93%
23-Feb-2024 12:00Broken Clouds18°C2 mph, E67%10000m1015hPa90%
23-Feb-2024 15:00Overcast Clouds24°C4 mph, NW100%10000m1014hPa69%
23-Feb-2024 18:00Light Rain27°C4 mph, W99%10000m1010hPa61%
23-Feb-2024 21:00Light Rain25°C0 mph, W86%10000m1008hPa75%
24-Feb-2024 00:00Moderate Rain20°C2 mph, SE84%10000m1012hPa93%
24-Feb-2024 03:00Light Rain18°C2 mph, SE61%10000m1015hPa94%
24-Feb-2024 06:00Light Rain17°C4 mph, SE61%10000m1015hPa94%
24-Feb-2024 09:00Light Rain17°C4 mph, SE69%10000m1014hPa93%
24-Feb-2024 12:00Light Rain18°C2 mph, SE75%10000m1016hPa88%
24-Feb-2024 15:00Light Rain24°C4 mph, NW63%10000m1016hPa71%
24-Feb-2024 18:00Light Rain25°C4 mph, NW47%10000m1012hPa73%
24-Feb-2024 21:00Moderate Rain24°C2 mph, W79%10000m1011hPa80%
25-Feb-2024 00:00Moderate Rain19°C2 mph, E87%8565m1014hPa94%
25-Feb-2024 03:00Light Rain19°C2 mph, SE98%10000m1016hPa94%
25-Feb-2024 06:00Light Rain18°C2 mph, E96%10000m1016hPa96%
25-Feb-2024 09:00Light Rain17°C2 mph, E97%10000m1016hPa96%
25-Feb-2024 12:00Light Rain18°C2 mph, E97%10000m1017hPa93%
25-Feb-2024 15:00Light Rain23°C2 mph, NW98%10000m1017hPa74%
25-Feb-2024 18:00Light Rain26°C4 mph, W98%10000m1013hPa67%
25-Feb-2024 21:00Light Rain25°C2 mph, NW100%10000m1010hPa70%
26-Feb-2024 00:00Moderate Rain19°C4 mph, SE97%7951m1014hPa94%